sensor_id;sensor_type;location;lat;lon;timestamp;P1;durP1;ratioP1;P2;durP2;ratioP2
4835;SDS011;66719;51.226;6.902;2023-03-12T00:01:18;15.40;;;4.87;;
4835;SDS011;66719;51.226;6.902;2023-03-12T00:03:49;19.03;;;4.67;;
4835;SDS011;66719;51.226;6.902;2023-03-12T00:06:17;17.30;;;4.70;;
4835;SDS011;66719;51.226;6.902;2023-03-12T00:08:44;12.97;;;4.40;;
4835;SDS011;66719;51.226;6.902;2023-03-12T00:11:11;13.13;;;4.60;;
4835;SDS011;66719;51.226;6.902;2023-03-12T00:13:40;18.90;;;3.60;;
4835;SDS011;66719;51.226;6.902;2023-03-12T00:16:11;12.50;;;4.27;;
4835;SDS011;66719;51.226;6.902;2023-03-12T00:18:40;17.23;;;4.50;;
4835;SDS011;66719;51.226;6.902;2023-03-12T00:21:07;17.93;;;4.80;;
4835;SDS011;66719;51.226;6.902;2023-03-12T00:23:34;12.13;;;4.17;;
4835;SDS011;66719;51.226;6.902;2023-03-12T00:26:03;16.77;;;4.53;;
4835;SDS011;66719;51.226;6.902;2023-03-12T00:28:32;14.00;;;4.00;;
4835;SDS011;66719;51.226;6.902;2023-03-12T00:30:58;14.20;;;3.77;;
4835;SDS011;66719;51.226;6.902;2023-03-12T00:33:25;12.53;;;3.37;;
4835;SDS011;66719;51.226;6.902;2023-03-12T00:35:54;17.47;;;4.33;;
4835;SDS011;66719;51.226;6.902;2023-03-12T00:38:21;13.10;;;3.47;;
4835;SDS011;66719;51.226;6.902;2023-03-12T00:40:48;15.60;;;3.60;;
4835;SDS011;66719;51.226;6.902;2023-03-12T00:43:14;15.73;;;4.17;;
4835;SDS011;66719;51.226;6.902;2023-03-12T00:45:41;22.80;;;3.53;;
4835;SDS011;66719;51.226;6.902;2023-03-12T00:48:07;12.27;;;3.30;;
4835;SDS011;66719;51.226;6.902;2023-03-12T00:50:34;10.33;;;3.00;;
4835;SDS011;66719;51.226;6.902;2023-03-12T00:53:00;16.83;;;3.80;;
4835;SDS011;66719;51.226;6.902;2023-03-12T00:55:28;13.87;;;3.70;;
4835;SDS011;66719;51.226;6.902;2023-03-12T00:57:54;10.53;;;3.23;;
4835;SDS011;66719;51.226;6.902;2023-03-12T01:00:21;13.10;;;3.50;;
4835;SDS011;66719;51.226;6.902;2023-03-12T01:02:47;11.40;;;3.80;;
4835;SDS011;66719;51.226;6.902;2023-03-12T01:05:14;14.47;;;3.40;;
4835;SDS011;66719;51.226;6.902;2023-03-12T01:07:41;10.93;;;3.43;;
4835;SDS011;66719;51.226;6.902;2023-03-12T01:10:09;13.70;;;3.33;;
4835;SDS011;66719;51.226;6.902;2023-03-12T01:12:38;12.90;;;3.80;;
4835;SDS011;66719;51.226;6.902;2023-03-12T01:15:05;18.53;;;3.43;;
4835;SDS011;66719;51.226;6.902;2023-03-12T01:17:33;19.33;;;3.30;;
4835;SDS011;66719;51.226;6.902;2023-03-12T01:19:59;13.60;;;3.47;;
4835;SDS011;66719;51.226;6.902;2023-03-12T01:22:26;15.57;;;3.67;;
4835;SDS011;66719;51.226;6.902;2023-03-12T01:24:52;14.33;;;3.40;;
4835;SDS011;66719;51.226;6.902;2023-03-12T01:27:18;14.40;;;3.50;;
4835;SDS011;66719;51.226;6.902;2023-03-12T01:29:45;15.57;;;3.00;;
4835;SDS011;66719;51.226;6.902;2023-03-12T01:32:12;12.40;;;2.97;;
4835;SDS011;66719;51.226;6.902;2023-03-12T01:34:39;15.40;;;3.83;;
4835;SDS011;66719;51.226;6.902;2023-03-12T01:37:05;13.33;;;3.00;;
4835;SDS011;66719;51.226;6.902;2023-03-12T01:39:32;12.37;;;3.23;;
4835;SDS011;66719;51.226;6.902;2023-03-12T01:41:59;12.90;;;2.80;;
4835;SDS011;66719;51.226;6.902;2023-03-12T01:44:27;14.97;;;3.20;;
4835;SDS011;66719;51.226;6.902;2023-03-12T01:46:54;10.13;;;3.07;;
4835;SDS011;66719;51.226;6.902;2023-03-12T01:49:33;12.87;;;3.57;;
4835;SDS011;66719;51.226;6.902;2023-03-12T01:54:35;11.60;;;3.53;;
4835;SDS011;66719;51.226;6.902;2023-03-12T01:57:07;10.60;;;3.53;;
4835;SDS011;66719;51.226;6.902;2023-03-12T01:59:43;15.60;;;3.20;;
4835;SDS011;66719;51.226;6.902;2023-03-12T02:02:13;10.17;;;2.80;;
4835;SDS011;66719;51.226;6.902;2023-03-12T02:04:41;14.30;;;2.70;;
4835;SDS011;66719;51.226;6.902;2023-03-12T02:07:15;19.80;;;3.43;;
4835;SDS011;66719;51.226;6.902;2023-03-12T02:09:43;12.07;;;3.20;;
4835;SDS011;66719;51.226;6.902;2023-03-12T02:12:12;15.70;;;3.13;;
4835;SDS011;66719;51.226;6.902;2023-03-12T02:14:39;10.30;;;2.60;;
4835;SDS011;66719;51.226;6.902;2023-03-12T02:17:06;12.97;;;3.43;;
4835;SDS011;66719;51.226;6.902;2023-03-12T02:22:18;13.20;;;3.23;;
4835;SDS011;66719;51.226;6.902;2023-03-12T02:24:56;10.80;;;3.20;;
4835;SDS011;66719;51.226;6.902;2023-03-12T02:27:30;15.83;;;3.50;;
4835;SDS011;66719;51.226;6.902;2023-03-12T02:29:59;17.17;;;3.33;;
4835;SDS011;66719;51.226;6.902;2023-03-12T02:32:27;12.03;;;2.83;;
4835;SDS011;66719;51.226;6.902;2023-03-12T02:34:58;11.40;;;3.03;;
4835;SDS011;66719;51.226;6.902;2023-03-12T02:37:25;11.47;;;2.90;;
4835;SDS011;66719;51.226;6.902;2023-03-12T02:39:56;10.60;;;2.60;;
4835;SDS011;66719;51.226;6.902;2023-03-12T02:42:44;9.47;;;2.70;;
4835;SDS011;66719;51.226;6.902;2023-03-12T02:45:11;12.60;;;2.83;;
4835;SDS011;66719;51.226;6.902;2023-03-12T02:47:37;11.80;;;3.57;;
4835;SDS011;66719;51.226;6.902;2023-03-12T02:50:04;15.40;;;2.80;;
4835;SDS011;66719;51.226;6.902;2023-03-12T02:52:31;10.73;;;2.80;;
4835;SDS011;66719;51.226;6.902;2023-03-12T02:55:00;11.80;;;3.00;;
4835;SDS011;66719;51.226;6.902;2023-03-12T02:57:27;13.67;;;3.03;;
4835;SDS011;66719;51.226;6.902;2023-03-12T02:59:53;12.80;;;2.60;;
4835;SDS011;66719;51.226;6.902;2023-03-12T03:02:20;12.67;;;2.70;;
4835;SDS011;66719;51.226;6.902;2023-03-12T03:04:46;13.37;;;2.40;;
4835;SDS011;66719;51.226;6.902;2023-03-12T03:07:13;14.60;;;2.67;;
4835;SDS011;66719;51.226;6.902;2023-03-12T03:09:40;16.60;;;2.83;;
4835;SDS011;66719;51.226;6.902;2023-03-12T03:12:06;10.20;;;3.17;;
4835;SDS011;66719;51.226;6.902;2023-03-12T03:14:33;10.43;;;2.87;;
4835;SDS011;66719;51.226;6.902;2023-03-12T03:16:59;15.60;;;2.80;;
4835;SDS011;66719;51.226;6.902;2023-03-12T03:19:26;16.77;;;3.80;;
4835;SDS011;66719;51.226;6.902;2023-03-12T03:21:52;14.73;;;3.20;;
4835;SDS011;66719;51.226;6.902;2023-03-12T03:24:18;10.20;;;2.40;;
4835;SDS011;66719;51.226;6.902;2023-03-12T03:26:46;20.90;;;3.13;;
4835;SDS011;66719;51.226;6.902;2023-03-12T03:29:12;12.63;;;2.70;;
4835;SDS011;66719;51.226;6.902;2023-03-12T03:31:39;11.83;;;2.90;;
4835;SDS011;66719;51.226;6.902;2023-03-12T03:34:05;10.00;;;2.60;;
4835;SDS011;66719;51.226;6.902;2023-03-12T03:36:32;10.20;;;2.50;;
4835;SDS011;66719;51.226;6.902;2023-03-12T03:38:58;12.27;;;2.83;;
4835;SDS011;66719;51.226;6.902;2023-03-12T03:41:25;11.77;;;2.80;;
4835;SDS011;66719;51.226;6.902;2023-03-12T03:43:54;12.83;;;2.50;;
4835;SDS011;66719;51.226;6.902;2023-03-12T03:46:23;11.57;;;2.50;;
4835;SDS011;66719;51.226;6.902;2023-03-12T03:48:51;13.93;;;3.10;;
4835;SDS011;66719;51.226;6.902;2023-03-12T03:51:18;11.27;;;2.73;;
4835;SDS011;66719;51.226;6.902;2023-03-12T03:53:45;17.43;;;3.07;;
4835;SDS011;66719;51.226;6.902;2023-03-12T03:56:12;11.93;;;2.70;;
4835;SDS011;66719;51.226;6.902;2023-03-12T03:58:41;14.63;;;2.83;;
4835;SDS011;66719;51.226;6.902;2023-03-12T04:01:07;11.37;;;2.53;;
4835;SDS011;66719;51.226;6.902;2023-03-12T04:03:34;13.70;;;3.00;;
4835;SDS011;66719;51.226;6.902;2023-03-12T04:06:02;9.70;;;2.70;;
4835;SDS011;66719;51.226;6.902;2023-03-12T04:08:31;12.33;;;2.93;;
4835;SDS011;66719;51.226;6.902;2023-03-12T04:11:17;10.80;;;2.63;;
4835;SDS011;66719;51.226;6.902;2023-03-12T04:13:45;13.73;;;2.70;;
4835;SDS011;66719;51.226;6.902;2023-03-12T04:16:12;16.13;;;3.10;;
4835;SDS011;66719;51.226;6.902;2023-03-12T04:18:39;12.00;;;2.80;;
4835;SDS011;66719;51.226;6.902;2023-03-12T04:21:06;11.83;;;2.73;;
4835;SDS011;66719;51.226;6.902;2023-03-12T04:23:34;11.10;;;2.40;;
4835;SDS011;66719;51.226;6.902;2023-03-12T04:26:01;10.23;;;3.00;;
4835;SDS011;66719;51.226;6.902;2023-03-12T04:28:29;12.00;;;2.50;;
4835;SDS011;66719;51.226;6.902;2023-03-12T04:30:56;10.80;;;2.80;;
4835;SDS011;66719;51.226;6.902;2023-03-12T04:33:27;15.90;;;2.63;;
4835;SDS011;66719;51.226;6.902;2023-03-12T04:35:55;11.63;;;2.40;;
4835;SDS011;66719;51.226;6.902;2023-03-12T04:38:22;11.30;;;2.60;;
4835;SDS011;66719;51.226;6.902;2023-03-12T04:41:00;11.30;;;2.60;;
4835;SDS011;66719;51.226;6.902;2023-03-12T04:43:33;13.77;;;3.53;;
4835;SDS011;66719;51.226;6.902;2023-03-12T04:46:01;10.87;;;3.50;;
4835;SDS011;66719;51.226;6.902;2023-03-12T04:48:28;10.83;;;2.50;;
4835;SDS011;66719;51.226;6.902;2023-03-12T04:50:54;10.07;;;2.60;;
4835;SDS011;66719;51.226;6.902;2023-03-12T04:53:21;11.43;;;2.73;;
4835;SDS011;66719;51.226;6.902;2023-03-12T04:55:48;14.50;;;2.57;;
4835;SDS011;66719;51.226;6.902;2023-03-12T04:58:15;10.50;;;2.70;;
4835;SDS011;66719;51.226;6.902;2023-03-12T05:00:42;13.90;;;2.90;;
4835;SDS011;66719;51.226;6.902;2023-03-12T05:03:09;12.53;;;3.00;;
4835;SDS011;66719;51.226;6.902;2023-03-12T05:05:35;15.70;;;2.87;;
4835;SDS011;66719;51.226;6.902;2023-03-12T05:08:02;11.17;;;2.73;;
4835;SDS011;66719;51.226;6.902;2023-03-12T05:10:29;11.90;;;2.57;;
4835;SDS011;66719;51.226;6.902;2023-03-12T05:12:55;11.70;;;2.53;;
4835;SDS011;66719;51.226;6.902;2023-03-12T05:15:22;21.70;;;2.37;;
4835;SDS011;66719;51.226;6.902;2023-03-12T05:17:49;12.37;;;2.90;;
4835;SDS011;66719;51.226;6.902;2023-03-12T05:20:15;11.20;;;2.60;;
4835;SDS011;66719;51.226;6.902;2023-03-12T05:22:46;13.77;;;2.57;;
4835;SDS011;66719;51.226;6.902;2023-03-12T05:25:12;13.20;;;2.20;;
4835;SDS011;66719;51.226;6.902;2023-03-12T05:27:39;14.17;;;2.80;;
4835;SDS011;66719;51.226;6.902;2023-03-12T05:30:06;11.90;;;3.03;;
4835;SDS011;66719;51.226;6.902;2023-03-12T05:32:32;13.80;;;3.03;;
4835;SDS011;66719;51.226;6.902;2023-03-12T05:34:59;11.87;;;2.77;;
4835;SDS011;66719;51.226;6.902;2023-03-12T05:37:26;15.27;;;3.10;;
4835;SDS011;66719;51.226;6.902;2023-03-12T05:39:53;12.90;;;2.90;;
4835;SDS011;66719;51.226;6.902;2023-03-12T05:42:19;12.60;;;2.63;;
4835;SDS011;66719;51.226;6.902;2023-03-12T05:44:46;14.00;;;3.27;;
4835;SDS011;66719;51.226;6.902;2023-03-12T05:47:13;14.90;;;3.43;;
4835;SDS011;66719;51.226;6.902;2023-03-12T05:49:39;11.97;;;2.40;;
4835;SDS011;66719;51.226;6.902;2023-03-12T05:52:05;15.50;;;3.40;;
4835;SDS011;66719;51.226;6.902;2023-03-12T05:54:32;15.63;;;2.90;;
4835;SDS011;66719;51.226;6.902;2023-03-12T05:56:58;18.47;;;4.00;;
4835;SDS011;66719;51.226;6.902;2023-03-12T05:59:25;11.70;;;3.40;;
4835;SDS011;66719;51.226;6.902;2023-03-12T06:01:52;14.47;;;3.10;;
4835;SDS011;66719;51.226;6.902;2023-03-12T06:04:18;11.00;;;2.53;;
4835;SDS011;66719;51.226;6.902;2023-03-12T06:06:45;12.27;;;2.80;;
4835;SDS011;66719;51.226;6.902;2023-03-12T06:09:12;13.33;;;3.93;;
4835;SDS011;66719;51.226;6.902;2023-03-12T06:11:38;11.00;;;2.70;;
4835;SDS011;66719;51.226;6.902;2023-03-12T06:14:05;12.83;;;3.20;;
4835;SDS011;66719;51.226;6.902;2023-03-12T06:16:31;13.77;;;2.80;;
4835;SDS011;66719;51.226;6.902;2023-03-12T06:18:59;10.00;;;2.90;;
4835;SDS011;66719;51.226;6.902;2023-03-12T06:21:28;17.17;;;3.60;;
4835;SDS011;66719;51.226;6.902;2023-03-12T06:24:00;13.10;;;3.30;;
4835;SDS011;66719;51.226;6.902;2023-03-12T06:26:28;10.50;;;2.90;;
4835;SDS011;66719;51.226;6.902;2023-03-12T06:28:54;11.03;;;3.27;;
4835;SDS011;66719;51.226;6.902;2023-03-12T06:31:21;11.43;;;3.23;;
4835;SDS011;66719;51.226;6.902;2023-03-12T06:33:49;11.57;;;3.10;;
4835;SDS011;66719;51.226;6.902;2023-03-12T06:36:16;17.90;;;3.30;;
4835;SDS011;66719;51.226;6.902;2023-03-12T06:38:43;13.40;;;3.40;;
4835;SDS011;66719;51.226;6.902;2023-03-12T06:41:14;12.07;;;2.97;;
4835;SDS011;66719;51.226;6.902;2023-03-12T06:43:42;12.30;;;3.10;;
4835;SDS011;66719;51.226;6.902;2023-03-12T06:46:14;14.87;;;3.60;;
4835;SDS011;66719;51.226;6.902;2023-03-12T06:48:42;15.17;;;3.30;;
4835;SDS011;66719;51.226;6.902;2023-03-12T06:51:11;10.90;;;3.23;;
4835;SDS011;66719;51.226;6.902;2023-03-12T06:53:40;11.93;;;3.20;;
4835;SDS011;66719;51.226;6.902;2023-03-12T06:56:07;14.00;;;3.63;;
4835;SDS011;66719;51.226;6.902;2023-03-12T06:58:34;14.40;;;3.80;;
4835;SDS011;66719;51.226;6.902;2023-03-12T07:01:01;13.43;;;3.33;;
4835;SDS011;66719;51.226;6.902;2023-03-12T07:03:28;14.17;;;4.40;;
4835;SDS011;66719;51.226;6.902;2023-03-12T07:05:55;12.03;;;3.60;;
4835;SDS011;66719;51.226;6.902;2023-03-12T07:08:23;12.10;;;3.33;;
4835;SDS011;66719;51.226;6.902;2023-03-12T07:10:50;14.80;;;3.60;;
4835;SDS011;66719;51.226;6.902;2023-03-12T07:13:16;13.40;;;3.80;;
4835;SDS011;66719;51.226;6.902;2023-03-12T07:15:43;10.87;;;2.90;;
4835;SDS011;66719;51.226;6.902;2023-03-12T07:18:11;12.30;;;3.23;;
4835;SDS011;66719;51.226;6.902;2023-03-12T07:20:39;12.37;;;3.17;;
4835;SDS011;66719;51.226;6.902;2023-03-12T07:23:07;14.00;;;3.63;;
4835;SDS011;66719;51.226;6.902;2023-03-12T07:25:37;15.43;;;3.63;;
4835;SDS011;66719;51.226;6.902;2023-03-12T07:28:05;14.47;;;4.17;;
4835;SDS011;66719;51.226;6.902;2023-03-12T07:30:32;13.70;;;3.77;;
4835;SDS011;66719;51.226;6.902;2023-03-12T07:33:03;17.53;;;4.30;;
4835;SDS011;66719;51.226;6.902;2023-03-12T07:35:30;16.43;;;3.53;;
4835;SDS011;66719;51.226;6.902;2023-03-12T07:37:58;14.57;;;3.57;;
4835;SDS011;66719;51.226;6.902;2023-03-12T07:40:26;19.47;;;4.40;;
4835;SDS011;66719;51.226;6.902;2023-03-12T07:42:53;13.73;;;3.27;;
4835;SDS011;66719;51.226;6.902;2023-03-12T07:45:20;19.90;;;3.87;;
4835;SDS011;66719;51.226;6.902;2023-03-12T07:47:47;17.40;;;3.83;;
4835;SDS011;66719;51.226;6.902;2023-03-12T07:50:15;13.13;;;3.40;;
4835;SDS011;66719;51.226;6.902;2023-03-12T07:52:43;13.57;;;3.10;;
4835;SDS011;66719;51.226;6.902;2023-03-12T07:55:10;12.97;;;3.57;;
4835;SDS011;66719;51.226;6.902;2023-03-12T07:57:37;17.00;;;3.93;;
4835;SDS011;66719;51.226;6.902;2023-03-12T08:00:04;16.30;;;3.70;;
4835;SDS011;66719;51.226;6.902;2023-03-12T08:02:35;15.00;;;4.10;;
4835;SDS011;66719;51.226;6.902;2023-03-12T08:05:02;13.13;;;3.57;;
4835;SDS011;66719;51.226;6.902;2023-03-12T08:07:31;15.13;;;3.30;;
4835;SDS011;66719;51.226;6.902;2023-03-12T08:10:00;13.50;;;3.67;;
4835;SDS011;66719;51.226;6.902;2023-03-12T08:12:28;13.50;;;3.63;;
4835;SDS011;66719;51.226;6.902;2023-03-12T08:14:54;12.50;;;3.63;;
4835;SDS011;66719;51.226;6.902;2023-03-12T08:17:24;15.00;;;3.07;;
4835;SDS011;66719;51.226;6.902;2023-03-12T08:19:51;11.40;;;3.50;;
4835;SDS011;66719;51.226;6.902;2023-03-12T08:22:17;15.33;;;3.67;;
4835;SDS011;66719;51.226;6.902;2023-03-12T08:24:44;13.57;;;4.20;;
4835;SDS011;66719;51.226;6.902;2023-03-12T08:27:10;15.77;;;3.70;;
4835;SDS011;66719;51.226;6.902;2023-03-12T08:29:40;12.90;;;3.40;;
4835;SDS011;66719;51.226;6.902;2023-03-12T08:32:07;14.77;;;3.40;;
4835;SDS011;66719;51.226;6.902;2023-03-12T08:34:35;16.13;;;3.57;;
4835;SDS011;66719;51.226;6.902;2023-03-12T08:37:02;12.50;;;4.10;;
4835;SDS011;66719;51.226;6.902;2023-03-12T08:39:29;18.53;;;3.90;;
4835;SDS011;66719;51.226;6.902;2023-03-12T08:41:55;12.63;;;3.60;;
4835;SDS011;66719;51.226;6.902;2023-03-12T08:44:22;15.90;;;3.80;;
4835;SDS011;66719;51.226;6.902;2023-03-12T08:46:49;15.30;;;4.20;;
4835;SDS011;66719;51.226;6.902;2023-03-12T08:49:16;15.97;;;4.30;;
4835;SDS011;66719;51.226;6.902;2023-03-12T08:51:43;15.43;;;4.30;;
4835;SDS011;66719;51.226;6.902;2023-03-12T08:54:10;12.63;;;4.20;;
4835;SDS011;66719;51.226;6.902;2023-03-12T08:56:36;14.73;;;4.20;;
4835;SDS011;66719;51.226;6.902;2023-03-12T08:59:07;16.03;;;4.00;;
4835;SDS011;66719;51.226;6.902;2023-03-12T09:01:35;16.00;;;4.40;;
4835;SDS011;66719;51.226;6.902;2023-03-12T09:04:03;16.97;;;4.10;;
4835;SDS011;66719;51.226;6.902;2023-03-12T09:06:30;12.87;;;4.60;;
4835;SDS011;66719;51.226;6.902;2023-03-12T09:08:58;11.97;;;4.03;;
4835;SDS011;66719;51.226;6.902;2023-03-12T09:11:30;17.40;;;4.47;;
4835;SDS011;66719;51.226;6.902;2023-03-12T09:13:59;14.60;;;4.90;;
4835;SDS011;66719;51.226;6.902;2023-03-12T09:16:46;14.20;;;5.93;;
4835;SDS011;66719;51.226;6.902;2023-03-12T09:19:13;13.80;;;4.50;;
4835;SDS011;66719;51.226;6.902;2023-03-12T09:21:39;13.07;;;4.20;;
4835;SDS011;66719;51.226;6.902;2023-03-12T09:24:06;13.17;;;4.47;;
4835;SDS011;66719;51.226;6.902;2023-03-12T09:26:33;15.23;;;4.50;;
4835;SDS011;66719;51.226;6.902;2023-03-12T09:29:00;13.70;;;4.97;;
4835;SDS011;66719;51.226;6.902;2023-03-12T09:31:26;14.20;;;5.07;;
4835;SDS011;66719;51.226;6.902;2023-03-12T09:33:53;14.87;;;5.30;;
4835;SDS011;66719;51.226;6.902;2023-03-12T09:36:19;15.27;;;4.90;;
4835;SDS011;66719;51.226;6.902;2023-03-12T09:38:46;15.23;;;4.70;;
4835;SDS011;66719;51.226;6.902;2023-03-12T09:41:23;21.53;;;5.77;;
4835;SDS011;66719;51.226;6.902;2023-03-12T09:43:56;11.20;;;4.80;;
4835;SDS011;66719;51.226;6.902;2023-03-12T09:46:34;12.97;;;5.77;;
4835;SDS011;66719;51.226;6.902;2023-03-12T09:49:12;17.67;;;6.73;;
4835;SDS011;66719;51.226;6.902;2023-03-12T09:51:45;14.97;;;5.37;;
4835;SDS011;66719;51.226;6.902;2023-03-12T09:54:21;17.80;;;6.30;;
4835;SDS011;66719;51.226;6.902;2023-03-12T09:56:54;18.50;;;5.10;;
4835;SDS011;66719;51.226;6.902;2023-03-12T09:59:25;11.53;;;4.87;;
4835;SDS011;66719;51.226;6.902;2023-03-12T10:01:54;15.47;;;5.90;;
4835;SDS011;66719;51.226;6.902;2023-03-12T10:10:11;17.90;;;6.53;;
4835;SDS011;66719;51.226;6.902;2023-03-12T10:28:44;14.33;;;6.13;;
4835;SDS011;66719;51.226;6.902;2023-03-12T10:31:27;11.40;;;5.60;;
4835;SDS011;66719;51.226;6.902;2023-03-12T10:34:00;19.20;;;5.73;;
4835;SDS011;66719;51.226;6.902;2023-03-12T10:38:58;11.50;;;6.20;;
4835;SDS011;66719;51.226;6.902;2023-03-12T10:41:27;12.80;;;6.40;;
4835;SDS011;66719;51.226;6.902;2023-03-12T10:44:00;13.33;;;6.10;;
4835;SDS011;66719;51.226;6.902;2023-03-12T10:54:35;13.07;;;6.17;;
4835;SDS011;66719;51.226;6.902;2023-03-12T10:57:03;11.13;;;5.70;;
4835;SDS011;66719;51.226;6.902;2023-03-12T10:59:31;13.07;;;6.47;;
4835;SDS011;66719;51.226;6.902;2023-03-12T11:02:00;11.73;;;5.80;;
4835;SDS011;66719;51.226;6.902;2023-03-12T11:04:29;14.10;;;7.60;;
4835;SDS011;66719;51.226;6.902;2023-03-12T11:09:30;13.20;;;6.20;;
4835;SDS011;66719;51.226;6.902;2023-03-12T11:11:56;14.00;;;6.97;;
4835;SDS011;66719;51.226;6.902;2023-03-12T11:14:27;12.70;;;7.10;;
4835;SDS011;66719;51.226;6.902;2023-03-12T11:16:55;12.83;;;7.47;;
4835;SDS011;66719;51.226;6.902;2023-03-12T11:19:30;12.57;;;6.00;;
4835;SDS011;66719;51.226;6.902;2023-03-12T11:22:02;13.57;;;7.27;;
4835;SDS011;66719;51.226;6.902;2023-03-12T11:24:33;15.00;;;6.70;;
4835;SDS011;66719;51.226;6.902;2023-03-12T11:27:13;12.10;;;6.40;;
4835;SDS011;66719;51.226;6.902;2023-03-12T11:29:53;16.80;;;7.20;;
4835;SDS011;66719;51.226;6.902;2023-03-12T11:34:55;14.00;;;7.80;;
4835;SDS011;66719;51.226;6.902;2023-03-12T11:48:51;14.90;;;8.30;;
4835;SDS011;66719;51.226;6.902;2023-03-12T11:57:01;16.17;;;9.47;;
4835;SDS011;66719;51.226;6.902;2023-03-12T12:02:12;17.60;;;9.70;;
4835;SDS011;66719;51.226;6.902;2023-03-12T12:12:40;27.23;;;9.80;;
4835;SDS011;66719;51.226;6.902;2023-03-12T12:20:43;16.27;;;10.67;;
4835;SDS011;66719;51.226;6.902;2023-03-12T12:23:20;20.77;;;11.90;;
4835;SDS011;66719;51.226;6.902;2023-03-12T12:31:46;25.07;;;11.10;;
4835;SDS011;66719;51.226;6.902;2023-03-12T12:37:13;20.03;;;12.00;;
4835;SDS011;66719;51.226;6.902;2023-03-12T12:39:45;24.53;;;12.90;;
4835;SDS011;66719;51.226;6.902;2023-03-12T12:42:20;23.70;;;13.03;;
4835;SDS011;66719;51.226;6.902;2023-03-12T12:44:52;24.47;;;12.60;;
4835;SDS011;66719;51.226;6.902;2023-03-12T12:47:25;24.70;;;12.90;;
4835;SDS011;66719;51.226;6.902;2023-03-12T12:49:59;26.13;;;14.00;;
4835;SDS011;66719;51.226;6.902;2023-03-12T12:52:28;29.27;;;15.30;;
4835;SDS011;66719;51.226;6.902;2023-03-12T12:57:43;29.20;;;14.50;;
4835;SDS011;66719;51.226;6.902;2023-03-12T13:00:19;34.90;;;16.57;;
4835;SDS011;66719;51.226;6.902;2023-03-12T13:02:47;29.70;;;16.00;;
4835;SDS011;66719;51.226;6.902;2023-03-12T13:05:28;33.30;;;15.93;;
4835;SDS011;66719;51.226;6.902;2023-03-12T13:08:30;32.80;;;15.20;;
4835;SDS011;66719;51.226;6.902;2023-03-12T13:11:03;31.03;;;14.40;;
4835;SDS011;66719;51.226;6.902;2023-03-12T13:14:10;37.47;;;13.50;;
4835;SDS011;66719;51.226;6.902;2023-03-12T13:16:43;37.77;;;14.03;;
4835;SDS011;66719;51.226;6.902;2023-03-12T13:21:52;38.30;;;13.73;;
4835;SDS011;66719;51.226;6.902;2023-03-12T13:24:32;35.03;;;12.23;;
4835;SDS011;66719;51.226;6.902;2023-03-12T13:27:22;36.37;;;12.90;;
4835;SDS011;66719;51.226;6.902;2023-03-12T13:29:50;37.40;;;12.30;;
4835;SDS011;66719;51.226;6.902;2023-03-12T13:35:06;46.83;;;13.40;;
4835;SDS011;66719;51.226;6.902;2023-03-12T13:45:27;44.67;;;10.80;;
4835;SDS011;66719;51.226;6.902;2023-03-12T13:47:58;45.53;;;10.53;;
4835;SDS011;66719;51.226;6.902;2023-03-12T13:50:27;45.07;;;9.97;;
4835;SDS011;66719;51.226;6.902;2023-03-12T13:55:28;38.40;;;7.30;;
4835;SDS011;66719;51.226;6.902;2023-03-12T13:58:03;43.30;;;7.90;;
4835;SDS011;66719;51.226;6.902;2023-03-12T14:03:14;44.23;;;9.13;;
4835;SDS011;66719;51.226;6.902;2023-03-12T14:05:59;54.47;;;7.30;;
4835;SDS011;66719;51.226;6.902;2023-03-12T14:19:11;54.37;;;8.03;;
4835;SDS011;66719;51.226;6.902;2023-03-12T14:21:39;37.60;;;6.83;;
4835;SDS011;66719;51.226;6.902;2023-03-12T14:24:19;51.87;;;7.37;;
4835;SDS011;66719;51.226;6.902;2023-03-12T14:26:55;38.13;;;6.63;;
4835;SDS011;66719;51.226;6.902;2023-03-12T14:30:27;37.90;;;7.07;;
4835;SDS011;66719;51.226;6.902;2023-03-12T14:33:03;45.17;;;7.00;;
4835;SDS011;66719;51.226;6.902;2023-03-12T14:35:37;32.10;;;6.10;;
4835;SDS011;66719;51.226;6.902;2023-03-12T14:38:15;30.43;;;5.97;;
4835;SDS011;66719;51.226;6.902;2023-03-12T14:40:54;36.60;;;5.63;;
4835;SDS011;66719;51.226;6.902;2023-03-12T14:43:27;30.97;;;6.20;;
4835;SDS011;66719;51.226;6.902;2023-03-12T14:45:56;30.57;;;5.20;;
4835;SDS011;66719;51.226;6.902;2023-03-12T14:48:28;27.83;;;5.23;;
4835;SDS011;66719;51.226;6.902;2023-03-12T14:50:57;27.90;;;5.97;;
4835;SDS011;66719;51.226;6.902;2023-03-12T14:53:29;40.43;;;6.93;;
4835;SDS011;66719;51.226;6.902;2023-03-12T14:55:58;33.43;;;6.00;;
4835;SDS011;66719;51.226;6.902;2023-03-12T14:58:30;44.60;;;6.87;;
4835;SDS011;66719;51.226;6.902;2023-03-12T15:00:59;33.30;;;5.80;;
4835;SDS011;66719;51.226;6.902;2023-03-12T15:03:31;27.17;;;7.57;;
4835;SDS011;66719;51.226;6.902;2023-03-12T15:06:11;32.40;;;6.70;;
4835;SDS011;66719;51.226;6.902;2023-03-12T15:08:40;38.80;;;5.30;;
4835;SDS011;66719;51.226;6.902;2023-03-12T15:11:08;43.10;;;6.73;;
4835;SDS011;66719;51.226;6.902;2023-03-12T15:13:36;34.40;;;5.90;;
4835;SDS011;66719;51.226;6.902;2023-03-12T15:16:04;40.27;;;6.60;;
4835;SDS011;66719;51.226;6.902;2023-03-12T15:18:31;39.33;;;6.30;;
4835;SDS011;66719;51.226;6.902;2023-03-12T15:20:59;37.57;;;6.60;;
4835;SDS011;66719;51.226;6.902;2023-03-12T15:23:28;32.63;;;6.40;;
4835;SDS011;66719;51.226;6.902;2023-03-12T15:26:40;36.97;;;8.13;;
4835;SDS011;66719;51.226;6.902;2023-03-12T15:28:54;38.73;;;6.27;;
4835;SDS011;66719;51.226;6.902;2023-03-12T15:31:22;39.30;;;7.70;;
4835;SDS011;66719;51.226;6.902;2023-03-12T15:34:03;32.10;;;6.13;;
4835;SDS011;66719;51.226;6.902;2023-03-12T15:36:32;47.53;;;6.57;;
4835;SDS011;66719;51.226;6.902;2023-03-12T15:39:01;46.50;;;8.50;;
4835;SDS011;66719;51.226;6.902;2023-03-12T15:41:42;34.00;;;7.03;;
4835;SDS011;66719;51.226;6.902;2023-03-12T15:44:16;39.90;;;7.47;;
4835;SDS011;66719;51.226;6.902;2023-03-12T15:46:46;44.13;;;7.60;;
4835;SDS011;66719;51.226;6.902;2023-03-12T15:49:24;37.37;;;7.43;;
4835;SDS011;66719;51.226;6.902;2023-03-12T15:51:58;39.77;;;6.70;;
4835;SDS011;66719;51.226;6.902;2023-03-12T15:54:26;39.97;;;6.73;;
4835;SDS011;66719;51.226;6.902;2023-03-12T15:57:09;39.03;;;5.80;;
4835;SDS011;66719;51.226;6.902;2023-03-12T15:59:37;42.73;;;7.93;;
4835;SDS011;66719;51.226;6.902;2023-03-12T16:02:08;41.77;;;7.40;;
4835;SDS011;66719;51.226;6.902;2023-03-12T16:04:36;42.57;;;7.90;;
4835;SDS011;66719;51.226;6.902;2023-03-12T16:07:04;38.00;;;6.47;;
4835;SDS011;66719;51.226;6.902;2023-03-12T16:09:37;30.50;;;5.93;;
4835;SDS011;66719;51.226;6.902;2023-03-12T16:12:03;41.57;;;7.07;;
4835;SDS011;66719;51.226;6.902;2023-03-12T16:14:31;51.13;;;9.07;;
4835;SDS011;66719;51.226;6.902;2023-03-12T16:16:59;34.17;;;6.13;;
4835;SDS011;66719;51.226;6.902;2023-03-12T16:19:27;31.70;;;8.00;;
4835;SDS011;66719;51.226;6.902;2023-03-12T16:21:55;42.47;;;6.80;;
4835;SDS011;66719;51.226;6.902;2023-03-12T16:24:21;44.03;;;8.07;;
4835;SDS011;66719;51.226;6.902;2023-03-12T16:26:51;31.80;;;6.47;;
4835;SDS011;66719;51.226;6.902;2023-03-12T16:29:20;33.27;;;5.90;;
4835;SDS011;66719;51.226;6.902;2023-03-12T16:31:52;39.03;;;6.97;;
4835;SDS011;66719;51.226;6.902;2023-03-12T16:34:21;42.73;;;7.03;;
4835;SDS011;66719;51.226;6.902;2023-03-12T16:36:48;45.33;;;7.90;;
4835;SDS011;66719;51.226;6.902;2023-03-12T16:39:14;33.80;;;6.23;;
4835;SDS011;66719;51.226;6.902;2023-03-12T16:41:44;43.27;;;6.33;;
4835;SDS011;66719;51.226;6.902;2023-03-12T16:44:14;42.13;;;7.10;;
4835;SDS011;66719;51.226;6.902;2023-03-12T16:46:45;32.33;;;5.93;;
4835;SDS011;66719;51.226;6.902;2023-03-12T16:49:15;43.10;;;7.20;;
4835;SDS011;66719;51.226;6.902;2023-03-12T16:51:43;40.47;;;6.90;;
4835;SDS011;66719;51.226;6.902;2023-03-12T16:54:09;38.33;;;7.10;;
4835;SDS011;66719;51.226;6.902;2023-03-12T16:56:37;36.17;;;6.70;;
4835;SDS011;66719;51.226;6.902;2023-03-12T16:59:12;30.37;;;5.43;;